Time;durP1;ratioP1;P1;durP2;ratioP2;P2;SDS_P1;SDS_P2;PMS_P1;PMS_P2;Temp;Humidity;BMP_temperature;BMP_pressure;BME280_temperature;BME280_humidity;BME280_pressure;Samples;Min_cycle;Max_cycle;Signal;HPM_P1;HPM_P2
2022/05/21 00:01:30;;;;;;;0.00;0.00;;;10.70;99.90;;;;;;5075543;28;20079;-78
2022/05/21 00:03:57;;;;;;;0.15;0.10;;;10.70;99.90;;;;;;5063219;28;20115;-80
2022/05/21 00:06:24;;;;;;;0.00;0.00;;;10.80;99.90;;;;;;5092392;28;20136;-80
2022/05/21 00:08:50;;;;;;;0.10;0.10;;;10.80;99.90;;;;;;5108303;28;20052;-78
2022/05/21 00:11:18;;;;;;;0.10;0.10;;;10.80;99.90;;;;;;5091793;28;20083;-79
2022/05/21 00:13:45;;;;;;;0.10;0.10;;;10.70;99.90;;;;;;5091856;28;20499;-78
2022/05/21 00:16:12;;;;;;;0.05;0.05;;;10.70;99.90;;;;;;5075253;28;20052;-78
2022/05/21 00:18:38;;;;;;;0.20;0.20;;;10.70;99.90;;;;;;5075384;28;20052;-80
2022/05/21 00:21:05;;;;;;;0.10;0.10;;;10.70;99.90;;;;;;5058535;28;20054;-78
2022/05/21 00:23:34;;;;;;;0.05;0.05;;;10.60;99.90;;;;;;5075643;28;20048;-78
2022/05/21 00:26:14;;;;;;;0.00;0.00;;;10.60;99.90;;;;;;5070623;28;20048;-78
2022/05/21 00:28:43;;;;;;;0.10;0.10;;;10.70;99.90;;;;;;5088395;28;20382;-78
2022/05/21 00:31:13;;;;;;;0.00;0.00;;;10.70;99.90;;;;;;5091413;28;20048;-80
2022/05/21 00:33:41;;;;;;;0.10;0.10;;;10.70;99.90;;;;;;5091943;28;20131;-80
2022/05/21 00:36:08;;;;;;;0.10;0.10;;;10.70;99.90;;;;;;5075158;28;20524;-80
2022/05/21 00:38:36;;;;;;;0.10;0.10;;;10.60;99.90;;;;;;5074708;28;20036;-80
2022/05/21 00:41:03;;;;;;;0.05;0.05;;;10.60;99.90;;;;;;5108076;28;20041;-80
2022/05/21 00:43:33;;;;;;;0.00;0.00;;;10.60;99.90;;;;;;5058926;28;20045;-78
2022/05/21 00:46:00;;;;;;;0.08;0.08;;;10.60;99.90;;;;;;5091186;28;20048;-79
2022/05/21 00:48:26;;;;;;;0.10;0.10;;;10.60;99.90;;;;;;5091348;28;20044;-78
2022/05/21 00:50:53;;;;;;;0.05;0.05;;;10.60;99.90;;;;;;5091025;28;20051;-80
2022/05/21 00:53:21;;;;;;;0.10;0.10;;;10.60;99.90;;;;;;5074692;28;20032;-78
2022/05/21 00:55:50;;;;;;;0.10;0.10;;;10.60;99.90;;;;;;5075132;28;20127;-78
2022/05/21 01:01:08;;;;;;;0.10;0.10;;;10.60;99.90;;;;;;5100839;28;20125;-79
2022/05/21 01:03:35;;;;;;;0.03;0.03;;;10.50;99.90;;;;;;5090904;28;20048;-78
2022/05/21 01:06:03;;;;;;;0.22;0.13;;;10.50;99.90;;;;;;5074459;28;20135;-78
2022/05/21 01:08:30;;;;;;;0.10;0.10;;;10.60;99.90;;;;;;5091484;28;20076;-79
2022/05/21 01:11:14;;;;;;;0.10;0.10;;;10.60;99.90;;;;;;5103000;28;20040;-78
2022/05/21 01:13:44;;;;;;;0.10;0.10;;;10.60;99.90;;;;;;5091037;28;20044;-78
2022/05/21 01:16:13;;;;;;;0.00;0.00;;;10.60;99.90;;;;;;5090988;28;20102;-80
2022/05/21 01:18:39;;;;;;;0.10;0.10;;;10.60;99.90;;;;;;5090869;28;20036;-78
2022/05/21 01:21:07;;;;;;;0.50;0.20;;;10.60;99.90;;;;;;5073838;28;20041;-78
2022/05/21 01:23:34;;;;;;;0.10;0.10;;;10.60;99.90;;;;;;5057744;28;20040;-80
2022/05/21 01:26:12;;;;;;;0.20;0.20;;;10.60;99.90;;;;;;5057469;28;20048;-78
2022/05/21 01:28:40;;;;;;;0.22;0.20;;;10.60;99.90;;;;;;5074228;28;20136;-80
2022/05/21 01:31:06;;;;;;;0.10;0.10;;;10.60;99.90;;;;;;5089887;28;20485;-78
2022/05/21 01:33:36;;;;;;;0.10;0.10;;;10.60;99.90;;;;;;5090866;28;20079;-78
2022/05/21 01:36:06;;;;;;;0.10;0.10;;;10.60;99.90;;;;;;5075052;28;20111;-79
2022/05/21 01:38:33;;;;;;;0.10;0.10;;;10.60;99.90;;;;;;5057811;28;20090;-79
2022/05/21 01:41:00;;;;;;;0.00;0.00;;;10.60;99.90;;;;;;5057803;28;20086;-80
2022/05/21 01:46:15;;;;;;;0.15;0.15;;;10.70;99.90;;;;;;5090174;28;20094;-78
2022/05/21 01:48:42;;;;;;;0.10;0.10;;;10.70;99.90;;;;;;5090689;28;20048;-78
2022/05/21 01:51:10;;;;;;;0.10;0.10;;;10.70;99.90;;;;;;5056904;28;20051;-78
2022/05/21 01:53:38;;;;;;;0.20;0.20;;;10.80;99.90;;;;;;5081331;28;20072;-80
2022/05/21 01:56:05;;;;;;;0.20;0.20;;;10.80;99.90;;;;;;5056980;28;20044;-78
2022/05/21 01:58:32;;;;;;;0.10;0.10;;;10.90;99.90;;;;;;5070253;28;20041;-79
2022/05/21 02:00:59;;;;;;;0.90;0.10;;;10.90;99.90;;;;;;5070075;28;20041;-78
2022/05/21 02:03:27;;;;;;;0.13;0.13;;;11.00;99.90;;;;;;5082710;28;20425;-80
2022/05/21 02:05:53;;;;;;;0.05;0.05;;;11.00;99.90;;;;;;5106506;28;20698;-80
2022/05/21 02:08:20;;;;;;;0.13;0.13;;;11.10;99.90;;;;;;5073534;28;20044;-80
2022/05/21 02:10:48;;;;;;;0.10;0.10;;;11.10;99.90;;;;;;5089766;28;20113;-80
2022/05/21 02:13:20;;;;;;;0.10;0.10;;;11.10;99.90;;;;;;5083053;28;20127;-79
2022/05/21 02:15:48;;;;;;;0.38;0.38;;;11.20;99.90;;;;;;5089234;28;20067;-79
2022/05/21 02:18:15;;;;;;;0.45;0.20;;;11.20;99.90;;;;;;5089546;28;20036;-78
2022/05/21 02:20:41;;;;;;;0.20;0.20;;;11.20;99.90;;;;;;5056891;28;20124;-79
2022/05/21 02:23:10;;;;;;;0.22;0.22;;;11.30;99.90;;;;;;5084321;28;20119;-80
2022/05/21 02:25:38;;;;;;;0.47;0.43;;;11.20;99.90;;;;;;5089545;28;20045;-80
2022/05/21 02:28:05;;;;;;;0.20;0.20;;;11.30;99.90;;;;;;5095984;28;20040;-78
2022/05/21 02:30:31;;;;;;;0.30;0.30;;;11.30;99.90;;;;;;5088712;28;20509;-78
2022/05/21 02:32:58;;;;;;;0.47;0.25;;;11.30;99.90;;;;;;5095931;28;20044;-79
2022/05/21 02:35:25;;;;;;;0.10;0.10;;;11.40;99.90;;;;;;5105922;28;20457;-79
2022/05/21 02:40:36;;;;;;;0.35;0.25;;;11.40;99.90;;;;;;5091745;28;20080;-80
2022/05/21 02:43:03;;;;;;;0.10;0.10;;;11.40;99.90;;;;;;5075810;28;20079;-80
2022/05/21 02:45:30;;;;;;;0.35;0.20;;;11.50;99.90;;;;;;5072299;28;20043;-79
2022/05/21 02:47:58;;;;;;;0.22;0.20;;;11.50;99.90;;;;;;5089137;28;20459;-80
2022/05/21 02:50:32;;;;;;;0.15;0.15;;;11.50;99.90;;;;;;5071968;28;20097;-78
2022/05/21 02:53:01;;;;;;;0.28;0.20;;;11.50;99.90;;;;;;5097156;28;20497;-78
2022/05/21 02:55:27;;;;;;;0.93;0.30;;;11.50;99.90;;;;;;5105129;28;20047;-78
2022/05/21 02:57:55;;;;;;;0.10;0.10;;;11.60;99.90;;;;;;5072086;28;20040;-79
2022/05/21 03:00:27;;;;;;;0.17;0.17;;;11.60;99.90;;;;;;5072047;28;20068;-78
2022/05/21 03:02:54;;;;;;;0.40;0.35;;;11.60;99.90;;;;;;5100330;28;20051;-78
2022/05/21 03:05:22;;;;;;;0.20;0.20;;;11.60;99.90;;;;;;5088301;28;20063;-78
2022/05/21 03:07:51;;;;;;;0.10;0.10;;;11.60;99.90;;;;;;5088682;28;20485;-80
2022/05/21 03:10:23;;;;;;;0.20;0.20;;;11.70;99.90;;;;;;5055143;28;20390;-78
2022/05/21 03:13:01;;;;;;;0.10;0.10;;;11.70;99.90;;;;;;5082660;28;20038;-80
2022/05/21 03:15:38;;;;;;;0.28;0.28;;;11.70;99.90;;;;;;5104548;28;20059;-79
2022/05/21 03:18:07;;;;;;;0.17;0.17;;;11.70;99.90;;;;;;5088097;28;20048;-77
2022/05/21 03:20:34;;;;;;;0.20;0.17;;;11.70;99.90;;;;;;5087894;28;20076;-79
2022/05/21 03:23:01;;;;;;;0.00;0.00;;;11.70;99.90;;;;;;5080542;28;20555;-80
2022/05/21 03:25:28;;;;;;;0.10;0.10;;;11.70;99.90;;;;;;5070832;28;20052;-79
2022/05/21 03:27:55;;;;;;;0.10;0.10;;;11.70;99.90;;;;;;5071341;28;20040;-80
2022/05/21 03:30:25;;;;;;;0.38;0.38;;;11.80;99.90;;;;;;5070531;28;20062;-78
2022/05/21 03:32:52;;;;;;;0.20;0.20;;;11.80;99.90;;;;;;5073409;28;20032;-78
2022/05/21 03:35:20;;;;;;;0.20;0.10;;;11.80;99.90;;;;;;5087516;28;20128;-78
2022/05/21 03:37:48;;;;;;;0.10;0.10;;;11.80;99.90;;;;;;5087738;28;20037;-78
2022/05/21 03:40:19;;;;;;;0.28;0.28;;;11.80;99.90;;;;;;5088350;28;20044;-80
2022/05/21 03:42:47;;;;;;;0.05;0.05;;;11.90;99.90;;;;;;5104706;28;20471;-78
2022/05/21 03:45:17;;;;;;;0.15;0.15;;;11.90;99.90;;;;;;5088382;28;20127;-80
2022/05/21 03:47:44;;;;;;;0.17;0.13;;;11.90;99.90;;;;;;5087808;28;20787;-79
2022/05/21 03:50:13;;;;;;;0.22;0.22;;;11.90;99.90;;;;;;5084430;28;20036;-79
2022/05/21 03:52:40;;;;;;;0.10;0.10;;;11.90;99.90;;;;;;5065966;28;20036;-78
2022/05/21 03:55:07;;;;;;;0.35;0.30;;;11.90;99.90;;;;;;5058052;28;20033;-80
2022/05/21 03:57:34;;;;;;;0.30;0.20;;;12.00;99.90;;;;;;5067402;28;20072;-80
2022/05/21 04:00:03;;;;;;;0.10;0.10;;;12.00;99.90;;;;;;5067859;28;20083;-79
2022/05/21 04:02:32;;;;;;;0.20;0.20;;;12.00;99.90;;;;;;5070145;28;20040;-78
2022/05/21 04:04:59;;;;;;;0.13;0.13;;;12.10;99.90;;;;;;5071941;28;20087;-78
2022/05/21 04:07:26;;;;;;;0.15;0.15;;;12.10;99.90;;;;;;5054936;28;20076;-79
2022/05/21 04:09:53;;;;;;;0.10;0.10;;;12.10;99.90;;;;;;5088090;28;20135;-78
2022/05/21 04:12:19;;;;;;;0.63;0.20;;;12.10;99.90;;;;;;5051990;28;20036;-78
2022/05/21 04:14:46;;;;;;;0.25;0.20;;;12.10;99.90;;;;;;5054963;28;20068;-78
2022/05/21 04:17:13;;;;;;;0.20;0.20;;;12.20;99.90;;;;;;5051377;28;20581;-80
2022/05/21 04:19:41;;;;;;;0.20;0.10;;;12.20;99.90;;;;;;5051384;28;20151;-78
2022/05/21 04:22:09;;;;;;;0.10;0.10;;;12.20;99.90;;;;;;5052845;28;20045;-79
2022/05/21 04:24:35;;;;;;;0.32;0.32;;;12.20;99.90;;;;;;5071776;28;20045;-80
2022/05/21 04:27:03;;;;;;;0.00;0.00;;;12.30;99.90;;;;;;5071210;28;20106;-80
2022/05/21 04:29:30;;;;;;;0.10;0.10;;;12.30;99.90;;;;;;5103747;28;20056;-79
2022/05/21 04:31:57;;;;;;;0.30;0.25;;;12.30;99.90;;;;;;5070409;28;20043;-79
2022/05/21 04:34:24;;;;;;;0.28;0.22;;;12.30;99.90;;;;;;5054329;28;20473;-80
2022/05/21 04:36:50;;;;;;;0.20;0.17;;;12.30;99.90;;;;;;5087706;28;20171;-79
2022/05/21 04:39:17;;;;;;;0.10;0.10;;;12.30;99.90;;;;;;5058383;28;20036;-78
2022/05/21 04:41:44;;;;;;;0.20;0.20;;;12.40;99.90;;;;;;5091254;28;20515;-80
2022/05/21 04:44:11;;;;;;;0.10;0.10;;;12.40;99.90;;;;;;5092712;28;20571;-78
2022/05/21 04:46:38;;;;;;;0.00;0.00;;;12.40;99.90;;;;;;5074275;28;20487;-80
2022/05/21 04:49:04;;;;;;;0.00;0.00;;;12.50;99.90;;;;;;5091467;28;20041;-78
2022/05/21 04:51:34;;;;;;;0.10;0.10;;;12.50;99.90;;;;;;5090781;28;20024;-78
2022/05/21 04:54:01;;;;;;;0.05;0.05;;;12.50;99.90;;;;;;5090965;28;20456;-78
2022/05/21 04:56:28;;;;;;;0.10;0.10;;;12.50;99.90;;;;;;5074201;28;20041;-79
2022/05/21 04:58:55;;;;;;;0.00;0.00;;;12.60;99.90;;;;;;5057888;28;20070;-78
2022/05/21 05:01:22;;;;;;;0.10;0.10;;;12.60;99.90;;;;;;5057867;28;20127;-78
2022/05/21 05:03:48;;;;;;;0.00;0.00;;;12.60;99.90;;;;;;5106065;28;20044;-80
2022/05/21 05:06:15;;;;;;;0.00;0.00;;;12.60;99.90;;;;;;5074547;28;20091;-79
2022/05/21 05:08:42;;;;;;;0.10;0.10;;;12.60;99.90;;;;;;5086336;28;20106;-79
2022/05/21 05:11:09;;;;;;;0.08;0.08;;;12.70;99.90;;;;;;5068127;28;20537;-78
2022/05/21 05:13:36;;;;;;;0.10;0.10;;;12.80;99.90;;;;;;5084615;28;20072;-78
2022/05/21 05:16:03;;;;;;;0.00;0.00;;;12.80;99.90;;;;;;5087624;28;20082;-78
2022/05/21 05:18:31;;;;;;;0.00;0.00;;;12.80;99.90;;;;;;5082058;28;20048;-80
2022/05/21 05:20:57;;;;;;;0.00;0.00;;;12.80;99.90;;;;;;5060191;28;20043;-78
2022/05/21 05:23:24;;;;;;;0.10;0.10;;;12.90;99.90;;;;;;5046123;28;20477;-78
2022/05/21 05:25:51;;;;;;;0.10;0.10;;;12.90;99.90;;;;;;5084763;28;20124;-78
2022/05/21 05:28:20;;;;;;;0.00;0.00;;;12.90;99.90;;;;;;5073459;28;20078;-78
2022/05/21 05:30:47;;;;;;;0.08;0.08;;;12.90;99.90;;;;;;5080770;28;20417;-80
2022/05/21 05:33:15;;;;;;;0.00;0.00;;;12.90;99.90;;;;;;5063219;28;20048;-78
2022/05/21 05:35:42;;;;;;;0.10;0.10;;;13.00;99.90;;;;;;5059771;28;20037;-80
2022/05/21 05:38:12;;;;;;;0.10;0.10;;;13.00;99.90;;;;;;5064965;28;20448;-78
2022/05/21 05:40:41;;;;;;;0.03;0.03;;;13.10;99.90;;;;;;5087043;28;20413;-78
2022/05/21 05:43:08;;;;;;;0.00;0.00;;;13.00;99.90;;;;;;5063380;28;20043;-78
2022/05/21 05:45:34;;;;;;;0.10;0.10;;;13.10;99.90;;;;;;5064630;28;20040;-78
2022/05/21 05:48:01;;;;;;;0.10;0.10;;;13.10;99.90;;;;;;5067705;28;20036;-80
2022/05/21 05:50:28;;;;;;;0.00;0.00;;;13.10;99.90;;;;;;5081933;28;20049;-78
2022/05/21 05:53:01;;;;;;;0.10;0.05;;;13.10;99.90;;;;;;5075051;28;20044;-78
2022/05/21 05:55:29;;;;;;;0.10;0.10;;;13.20;99.90;;;;;;5069920;28;20040;-78
2022/05/21 05:57:55;;;;;;;0.10;0.00;;;13.20;99.90;;;;;;5073264;28;20075;-80
2022/05/21 06:00:22;;;;;;;0.10;0.10;;;13.20;99.90;;;;;;5090066;28;20087;-79
2022/05/21 06:02:58;;;;;;;0.22;0.10;;;13.20;99.90;;;;;;5078423;28;20036;-78
2022/05/21 06:05:28;;;;;;;0.00;0.00;;;13.20;99.90;;;;;;5089854;28;20102;-78
2022/05/21 06:08:01;;;;;;;0.10;0.10;;;13.10;99.90;;;;;;5106033;28;20048;-79
2022/05/21 06:10:32;;;;;;;0.00;0.00;;;13.20;99.90;;;;;;5073235;28;20470;-79
2022/05/21 06:12:59;;;;;;;0.17;0.13;;;13.30;99.90;;;;;;5089853;28;20040;-80
2022/05/21 06:15:26;;;;;;;0.10;0.10;;;13.40;99.90;;;;;;5090412;28;20087;-79
2022/05/21 06:17:54;;;;;;;0.00;0.00;;;13.40;99.90;;;;;;5086155;28;20039;-80
2022/05/21 06:20:24;;;;;;;0.10;0.10;;;13.50;99.90;;;;;;5080110;28;20045;-80
2022/05/21 06:22:51;;;;;;;0.20;0.20;;;13.60;99.90;;;;;;5072816;28;20044;-80
2022/05/21 06:25:21;;;;;;;0.10;0.10;;;13.60;99.90;;;;;;5089400;28;20036;-79
2022/05/21 06:27:51;;;;;;;0.05;0.05;;;13.60;99.90;;;;;;5072583;28;20043;-79
2022/05/21 06:30:20;;;;;;;0.10;0.10;;;13.60;99.90;;;;;;5094028;28;20478;-79
2022/05/21 06:32:47;;;;;;;0.03;0.03;;;13.70;99.90;;;;;;5089595;28;20094;-80
2022/05/21 06:35:17;;;;;;;0.08;0.08;;;13.80;99.90;;;;;;5106125;28;20431;-80
2022/05/21 06:37:44;;;;;;;0.10;0.10;;;13.80;99.90;;;;;;5089315;28;20040;-79
2022/05/21 06:40:13;;;;;;;0.00;0.00;;;13.70;99.90;;;;;;5073093;28;20506;-80
2022/05/21 06:42:40;;;;;;;0.10;0.10;;;13.70;99.90;;;;;;5072558;28;20048;-80
2022/05/21 06:45:08;;;;;;;0.13;0.13;;;13.80;99.90;;;;;;5075635;28;20072;-80
2022/05/21 06:47:36;;;;;;;0.10;0.10;;;13.90;99.90;;;;;;5086497;28;20139;-81
2022/05/21 06:50:05;;;;;;;0.08;0.08;;;13.90;99.90;;;;;;5085077;28;20122;-80
2022/05/21 06:52:32;;;;;;;0.00;0.00;;;14.00;99.90;;;;;;5079718;28;20044;-80
2022/05/21 06:55:00;;;;;;;0.00;0.00;;;14.00;99.90;;;;;;5060696;28;20041;-80
2022/05/21 06:57:28;;;;;;;0.00;0.00;;;13.90;99.90;;;;;;5058536;28;20493;-80
2022/05/21 06:59:55;;;;;;;0.03;0.03;;;14.00;99.90;;;;;;5052421;28;20080;-79
2022/05/21 07:02:24;;;;;;;0.30;0.30;;;13.90;99.90;;;;;;5052997;28;20052;-79
2022/05/21 07:07:46;;;;;;;0.10;0.10;;;14.10;99.90;;;;;;5080025;28;20527;-79
2022/05/21 07:10:18;;;;;;;0.10;0.10;;;14.20;99.90;;;;;;5052696;28;20048;-79
2022/05/21 07:12:45;;;;;;;0.10;0.10;;;14.30;99.90;;;;;;5071789;28;20040;-79
2022/05/21 07:15:13;;;;;;;0.00;0.00;;;14.40;99.90;;;;;;5074030;28;20048;-80
2022/05/21 07:17:40;;;;;;;0.10;0.10;;;14.40;99.90;;;;;;5056780;28;20036;-80
2022/05/21 07:20:10;;;;;;;0.10;0.10;;;14.30;99.90;;;;;;5055936;28;20098;-79
2022/05/21 07:22:44;;;;;;;0.10;0.10;;;14.30;99.90;;;;;;5086048;28;20570;-80
2022/05/21 07:25:13;;;;;;;0.15;0.10;;;14.30;99.90;;;;;;5067076;28;20788;-79
2022/05/21 07:27:40;;;;;;;0.10;0.10;;;14.40;99.90;;;;;;5060652;28;20048;-80
2022/05/21 07:30:08;;;;;;;0.10;0.05;;;14.50;99.90;;;;;;5035636;28;20104;-79
2022/05/21 07:32:35;;;;;;;0.10;0.10;;;14.60;99.90;;;;;;5086677;28;20123;-79
2022/05/21 07:35:07;;;;;;;0.00;0.00;;;14.70;99.90;;;;;;5087213;28;20453;-79
2022/05/21 07:37:34;;;;;;;0.08;0.08;;;14.80;99.90;;;;;;5060998;28;20039;-80
2022/05/21 07:40:01;;;;;;;0.20;0.20;;;14.80;99.90;;;;;;5063792;28;20032;-80
2022/05/21 07:42:28;;;;;;;0.10;0.10;;;14.90;99.90;;;;;;5062674;28;20043;-79
2022/05/21 07:44:56;;;;;;;0.22;0.10;;;15.10;99.90;;;;;;5058352;28;20385;-79
2022/05/21 07:47:24;;;;;;;0.20;0.10;;;15.10;99.90;;;;;;5076031;28;20115;-79
2022/05/21 07:49:56;;;;;;;0.00;0.00;;;15.00;99.90;;;;;;5078070;28;20096;-79
2022/05/21 07:52:23;;;;;;;0.00;0.00;;;14.80;99.90;;;;;;5095241;28;20033;-79
2022/05/21 07:54:50;;;;;;;0.10;0.10;;;14.70;99.90;;;;;;5063305;28;20033;-79
2022/05/21 07:57:17;;;;;;;0.10;0.10;;;14.70;99.90;;;;;;5063713;28;20033;-79
2022/05/21 07:59:44;;;;;;;0.00;0.00;;;14.60;99.90;;;;;;5052148;28;20051;-80
2022/05/21 08:02:12;;;;;;;0.17;0.17;;;14.70;99.90;;;;;;5068727;28;20033;-80
2022/05/21 08:04:39;;;;;;;0.10;0.10;;;14.80;99.90;;;;;;5088210;28;20123;-81
2022/05/21 08:07:06;;;;;;;0.00;0.00;;;15.00;99.90;;;;;;5076212;28;20072;-81
2022/05/21 08:09:33;;;;;;;0.28;0.20;;;15.10;99.90;;;;;;5060579;28;20410;-81
2022/05/21 08:11:59;;;;;;;0.00;0.00;;;15.00;99.90;;;;;;5075593;28;20064;-79
2022/05/21 08:14:27;;;;;;;0.10;0.10;;;14.90;99.90;;;;;;5060247;28;20457;-80
2022/05/21 08:16:54;;;;;;;0.10;0.10;;;14.90;99.90;;;;;;5075194;28;20044;-80
2022/05/21 08:19:21;;;;;;;0.10;0.10;;;14.90;99.90;;;;;;5058239;28;20043;-79
2022/05/21 08:21:47;;;;;;;0.10;0.10;;;14.90;99.90;;;;;;5075708;28;20496;-79
2022/05/21 08:27:00;;;;;;;0.10;0.10;;;15.20;99.90;;;;;;5061183;28;20447;-79
2022/05/21 08:29:33;;;;;;;0.10;0.10;;;15.10;99.90;;;;;;5075919;28;20071;-79
2022/05/21 08:32:01;;;;;;;0.10;0.10;;;15.20;99.90;;;;;;5074671;28;20036;-79
2022/05/21 08:34:28;;;;;;;0.17;0.15;;;15.20;99.90;;;;;;5074853;28;20045;-79
2022/05/21 08:36:55;;;;;;;0.00;0.00;;;15.20;99.90;;;;;;5074873;28;20097;-79
2022/05/21 08:39:22;;;;;;;0.13;0.13;;;15.20;99.90;;;;;;5089324;28;20486;-79
2022/05/21 08:41:58;;;;;;;0.10;0.10;;;15.20;99.90;;;;;;5091412;28;20040;-79
2022/05/21 08:44:42;;;;;;;0.10;0.10;;;15.20;99.90;;;;;;5091697;28;20493;-79
2022/05/21 08:47:20;;;;;;;0.10;0.10;;;15.40;99.90;;;;;;5091336;28;20051;-83
2022/05/21 08:49:54;;;;;;;0.03;0.03;;;15.30;99.90;;;;;;5092174;28;20055;-78
2022/05/21 08:52:27;;;;;;;0.20;0.10;;;15.30;99.90;;;;;;5107969;28;20044;-79
2022/05/21 08:54:57;;;;;;;0.00;0.00;;;15.20;99.90;;;;;;5107788;28;20048;-80
2022/05/21 08:57:42;;;;;;;0.05;0.05;;;15.30;99.90;;;;;;5090197;28;20036;-79
2022/05/21 09:00:20;;;;;;;0.10;0.10;;;15.40;99.90;;;;;;5096279;28;20063;-80
2022/05/21 09:02:47;;;;;;;0.10;0.10;;;15.70;99.90;;;;;;5074571;28;20072;-80
2022/05/21 09:05:16;;;;;;;0.10;0.10;;;15.90;99.90;;;;;;5090726;28;20048;-80
2022/05/21 09:07:46;;;;;;;0.10;0.10;;;16.10;99.90;;;;;;5091847;28;20040;-79
2022/05/21 09:10:29;;;;;;;0.10;0.10;;;16.20;99.90;;;;;;5090748;28;20043;-80
2022/05/21 09:13:12;;;;;;;0.75;0.52;;;16.30;99.90;;;;;;5084206;28;20425;-80
2022/05/21 09:18:29;;;;;;;1.75;0.40;;;16.50;99.90;;;;;;5079228;28;20578;-80
2022/05/21 09:21:02;;;;;;;0.28;0.20;;;16.50;99.90;;;;;;5074367;28;20040;-79
2022/05/21 09:23:57;;;;;;;0.10;0.10;;;16.40;99.90;;;;;;5073738;28;20448;-80
2022/05/21 09:26:31;;;;;;;0.47;0.22;;;16.60;99.90;;;;;;5071739;28;20052;-79
2022/05/21 09:29:33;;;;;;;0.10;0.10;;;16.70;99.90;;;;;;5073493;28;20558;-79
2022/05/21 09:32:31;;;;;;;0.10;0.10;;;16.90;99.90;;;;;;5049925;28;20041;-79
2022/05/21 09:35:09;;;;;;;0.00;0.00;;;17.00;99.90;;;;;;5050792;28;20041;-79
2022/05/21 09:37:35;;;;;;;0.17;0.10;;;16.80;99.90;;;;;;5067504;28;20568;-81
2022/05/21 09:40:34;;;;;;;0.10;0.10;;;16.80;99.90;;;;;;5050411;28;20157;-80
2022/05/21 09:46:26;;;;;;;0.10;0.10;;;16.70;99.90;;;;;;5071581;28;20053;-80
2022/05/21 09:49:15;;;;;;;0.20;0.20;;;16.40;99.90;;;;;;5071240;28;20046;-81
2022/05/21 09:51:53;;;;;;;0.10;0.10;;;16.30;99.90;;;;;;5043985;28;20046;-79
2022/05/21 09:54:26;;;;;;;0.10;0.10;;;16.40;99.90;;;;;;5057128;28;20034;-79
2022/05/21 09:56:55;;;;;;;0.10;0.10;;;16.30;99.90;;;;;;5060276;28;20034;-80
2022/05/21 09:59:25;;;;;;;0.10;0.10;;;16.30;99.90;;;;;;5063718;28;20083;-80
2022/05/21 10:01:56;;;;;;;0.10;0.10;;;16.20;99.90;;;;;;5034833;28;20041;-81
2022/05/21 10:04:27;;;;;;;0.25;0.15;;;16.50;99.90;;;;;;5066144;28;20045;-79
2022/05/21 10:07:09;;;;;;;0.20;0.20;;;16.60;99.90;;;;;;5063122;28;20068;-79
2022/05/21 10:12:38;;;;;;;0.03;0.03;;;16.40;99.90;;;;;;5083523;28;20136;-80
2022/05/21 10:15:19;;;;;;;0.38;0.10;;;16.10;99.90;;;;;;5050046;28;20040;-80
2022/05/21 10:17:56;;;;;;;0.05;0.00;;;16.00;99.90;;;;;;5050436;28;20046;-80
2022/05/21 10:20:31;;;;;;;0.00;0.00;;;16.10;99.90;;;;;;5069887;28;20068;-81
2022/05/21 10:23:26;;;;;;;0.20;0.20;;;16.00;99.90;;;;;;5046713;28;20044;-80
2022/05/21 10:26:08;;;;;;;0.10;0.10;;;16.00;99.90;;;;;;5063071;28;20045;-81
2022/05/21 10:28:54;;;;;;;0.10;0.10;;;15.90;99.90;;;;;;5046682;28;20660;-79
2022/05/21 10:31:37;;;;;;;0.30;0.20;;;16.00;99.90;;;;;;5082817;28;20049;-80
2022/05/21 10:34:32;;;;;;;0.10;0.10;;;16.10;99.90;;;;;;5102890;28;20052;-79
2022/05/21 10:37:12;;;;;;;0.00;0.00;;;16.20;99.90;;;;;;5102410;28;20071;-80
2022/05/21 10:40:18;;;;;;;0.10;0.10;;;16.10;99.90;;;;;;5086278;28;20041;-79
2022/05/21 10:43:18;;;;;;;0.10;0.10;;;16.20;99.90;;;;;;5069763;28;20045;-80
2022/05/21 10:46:00;;;;;;;0.10;0.10;;;16.20;99.90;;;;;;5069448;28;20040;-80
2022/05/21 10:48:42;;;;;;;0.17;0.17;;;16.40;99.90;;;;;;5069687;28;20375;-79
2022/05/21 10:51:33;;;;;;;0.00;0.00;;;16.40;99.90;;;;;;5085342;28;20128;-79
2022/05/21 10:54:28;;;;;;;0.38;0.15;;;16.60;99.90;;;;;;5069340;28;20041;-80
2022/05/21 10:57:19;;;;;;;0.20;0.10;;;16.90;99.90;;;;;;5073897;28;20052;-80
2022/05/21 11:00:09;;;;;;;0.00;0.00;;;17.30;99.90;;;;;;5060213;28;20390;-81
2022/05/21 11:02:59;;;;;;;0.10;0.10;;;17.20;99.90;;;;;;5086219;28;20049;-80
2022/05/21 11:05:40;;;;;;;0.90;0.50;;;17.20;99.90;;;;;;5067755;28;20045;-81
2022/05/21 11:08:34;;;;;;;0.10;0.10;;;17.20;99.90;;;;;;5077358;28;20037;-80
2022/05/21 11:11:07;;;;;;;0.10;0.10;;;17.10;99.90;;;;;;5064565;28;20048;-80
2022/05/21 11:13:57;;;;;;;0.10;0.10;;;17.30;99.90;;;;;;5059113;28;20041;-81
2022/05/21 11:16:31;;;;;;;0.10;0.10;;;17.50;99.90;;;;;;5080714;28;20036;-80
2022/05/21 11:19:06;;;;;;;0.00;0.00;;;17.60;99.90;;;;;;5063855;28;20079;-81
2022/05/21 11:22:04;;;;;;;0.00;0.00;;;17.50;99.90;;;;;;5068702;28;20041;-80
2022/05/21 11:24:42;;;;;;;0.05;0.05;;;17.40;99.90;;;;;;5059933;28;20053;-80
2022/05/21 11:27:34;;;;;;;0.10;0.10;;;17.20;99.90;;;;;;5102055;28;20048;-81
2022/05/21 11:30:05;;;;;;;0.20;0.05;;;17.10;99.90;;;;;;5065885;28;20157;-80
2022/05/21 11:38:24;;;;;;;0.20;0.20;;;17.20;99.90;;;;;;5084348;28;20517;-80
2022/05/21 11:41:27;;;;;;;0.00;0.00;;;17.00;99.90;;;;;;5083149;28;20379;-80
2022/05/21 11:45:09;;;;;;;0.03;0.03;;;17.40;99.90;;;;;;5072029;28;20041;-81
2022/05/21 11:47:05;;;;;;;0.10;0.10;;;17.70;99.90;;;;;;5066322;28;20048;-80
2022/05/21 11:49:50;;;;;;;0.00;0.00;;;18.00;99.90;;;;;;5071807;28;20044;-80
2022/05/21 11:52:26;;;;;;;0.10;0.10;;;17.90;99.90;;;;;;5058415;28;20048;-82
2022/05/21 11:55:10;;;;;;;0.00;0.00;;;17.80;99.90;;;;;;5085666;28;20517;-80
2022/05/21 11:57:40;;;;;;;0.00;0.00;;;17.90;99.90;;;;;;5087332;28;20123;-80
2022/05/21 12:00:14;;;;;;;0.10;0.10;;;18.10;99.90;;;;;;5083230;28;20094;-81
2022/05/21 12:03:04;;;;;;;0.20;0.10;;;18.20;99.90;;;;;;5072974;28;20436;-81
2022/05/21 12:05:34;;;;;;;0.28;0.10;;;18.30;99.90;;;;;;5087993;28;20045;-81
2022/05/21 12:08:32;;;;;;;0.10;0.10;;;18.30;99.90;;;;;;5081072;28;20051;-80
2022/05/21 12:11:05;;;;;;;0.00;0.00;;;18.00;99.90;;;;;;5081613;28;20042;-81
2022/05/21 12:13:35;;;;;;;0.65;0.30;;;18.00;99.90;;;;;;5088465;28;20106;-81
2022/05/21 12:16:22;;;;;;;0.10;0.10;;;18.10;99.90;;;;;;5088395;28;20452;-81
2022/05/21 12:18:54;;;;;;;0.25;0.10;;;18.40;99.90;;;;;;5072433;28;20029;-81
2022/05/21 12:21:43;;;;;;;0.35;0.08;;;18.60;99.90;;;;;;5088251;28;20040;-81
2022/05/21 12:24:36;;;;;;;0.10;0.10;;;18.80;99.90;;;;;;5089021;28;20056;-81
2022/05/21 12:27:26;;;;;;;0.10;0.10;;;18.60;99.90;;;;;;5088663;28;20131;-80
2022/05/21 12:29:59;;;;;;;0.45;0.22;;;18.50;99.90;;;;;;5071694;28;20128;-82
2022/05/21 12:32:27;;;;;;;0.10;0.10;;;18.20;99.90;;;;;;5069290;28;20049;-81
2022/05/21 12:34:59;;;;;;;0.00;0.00;;;18.30;99.90;;;;;;5052541;28;20124;-81
2022/05/21 12:37:36;;;;;;;0.25;0.20;;;18.10;99.90;;;;;;5063958;28;20041;-80
2022/05/21 12:40:16;;;;;;;1.23;0.30;;;18.20;99.90;;;;;;5068378;28;20521;-81
2022/05/21 12:42:47;;;;;;;0.15;0.15;;;17.90;99.90;;;;;;5051892;28;20041;-81
2022/05/21 12:45:36;;;;;;;0.10;0.10;;;17.70;99.90;;;;;;5065758;28;20094;-80
2022/05/21 12:48:31;;;;;;;0.15;0.08;;;17.40;99.90;;;;;;5084354;28;20041;-81
2022/05/21 12:51:05;;;;;;;0.17;0.17;;;17.20;99.90;;;;;;5065599;28;20486;-81
2022/05/21 12:53:44;;;;;;;0.22;0.13;;;17.10;99.90;;;;;;5087970;28;20104;-81
2022/05/21 12:56:32;;;;;;;0.20;0.20;;;17.20;99.90;;;;;;5088205;28;20044;-81
2022/05/21 12:59:27;;;;;;;0.13;0.10;;;17.20;99.90;;;;;;5065246;28;20738;-80
2022/05/21 13:01:55;;;;;;;0.10;0.10;;;17.00;99.90;;;;;;5085837;28;20068;-81
2022/05/21 13:04:33;;;;;;;0.40;0.20;;;17.00;99.90;;;;;;5071726;28;20106;-81
2022/05/21 13:07:11;;;;;;;0.20;0.20;;;16.90;99.90;;;;;;5071579;28;20405;-81
2022/05/21 13:09:50;;;;;;;0.43;0.35;;;17.00;99.90;;;;;;5088069;28;20045;-81
2022/05/21 13:12:17;;;;;;;0.30;0.22;;;17.00;99.90;;;;;;5059966;28;20044;-81
2022/05/21 13:14:45;;;;;;;0.10;0.10;;;17.00;99.90;;;;;;5058535;28;20033;-81
2022/05/21 13:17:45;;;;;;;0.20;0.10;;;17.00;99.90;;;;;;5070491;28;20115;-81
2022/05/21 13:20:34;;;;;;;0.10;0.10;;;16.90;99.90;;;;;;5087339;28;20048;-81
2022/05/21 13:23:26;;;;;;;0.70;0.20;;;17.10;99.90;;;;;;5069144;28;20091;-81
2022/05/21 13:25:54;;;;;;;0.55;0.30;;;17.50;99.90;;;;;;5070424;28;20037;-80
2022/05/21 13:28:23;;;;;;;0.10;0.10;;;17.80;99.90;;;;;;5070125;28;20470;-81
2022/05/21 13:30:51;;;;;;;0.65;0.10;;;18.10;99.90;;;;;;5084871;28;20160;-81
2022/05/21 13:33:34;;;;;;;0.10;0.10;;;18.10;99.90;;;;;;5069018;28;20131;-81
2022/05/21 13:36:07;;;;;;;0.10;0.10;;;18.30;99.90;;;;;;5071131;28;20044;-81
2022/05/21 13:38:37;;;;;;;0.10;0.10;;;18.20;99.90;;;;;;5070221;28;20502;-81
2022/05/21 13:41:10;;;;;;;0.05;0.05;;;18.10;99.90;;;;;;5078236;28;20041;-81
2022/05/21 13:43:42;;;;;;;0.30;0.10;;;18.00;99.90;;;;;;5090113;28;20570;-81